Time;durP1;ratioP1;P1;durP2;ratioP2;P2;SDS_P1;SDS_P2;PMS_P1;PMS_P2;Temp;Humidity;BMP_temperature;BMP_pressure;BME280_temperature;BME280_humidity;BME280_pressure;Samples;Min_cycle;Max_cycle;Signal;HPM_P1;HPM_P2
2023/01/22 00:00:55;;;;;;;13.17;7.57;;;-0.70;99.90;;;;;;5043276;28;20044;-82
2023/01/22 00:03:21;;;;;;;11.67;7.43;;;-0.70;99.90;;;;;;5048205;28;20029;-82
2023/01/22 00:05:46;;;;;;;14.53;8.33;;;-0.60;99.90;;;;;;5032099;28;20151;-82
2023/01/22 00:08:12;;;;;;;11.60;7.27;;;-0.50;99.90;;;;;;5048433;28;20041;-82
2023/01/22 00:10:37;;;;;;;16.07;7.50;;;-0.40;99.90;;;;;;5048860;28;20056;-83
2023/01/22 00:13:03;;;;;;;11.07;7.23;;;-0.40;99.90;;;;;;5043215;28;20044;-82
2023/01/22 00:15:28;;;;;;;13.23;7.47;;;-0.30;99.90;;;;;;5048150;28;20494;-83
2023/01/22 00:17:54;;;;;;;14.67;8.30;;;-0.30;99.90;;;;;;5044237;28;20032;-83
2023/01/22 00:20:19;;;;;;;12.57;7.57;;;-0.20;99.90;;;;;;5048697;28;20033;-84
2023/01/22 00:22:45;;;;;;;13.63;7.53;;;-0.20;99.90;;;;;;5030136;28;20047;-85
2023/01/22 00:25:11;;;;;;;13.70;7.73;;;-0.20;99.90;;;;;;5022866;28;20034;-85
2023/01/22 00:27:37;;;;;;;15.30;7.83;;;-0.30;99.90;;;;;;5029425;28;20037;-84
2023/01/22 00:30:03;;;;;;;15.43;8.23;;;-0.30;99.90;;;;;;5041484;28;20081;-85
2023/01/22 00:32:29;;;;;;;13.47;8.17;;;-0.30;99.90;;;;;;5032732;28;20044;-86
2023/01/22 00:34:54;;;;;;;13.70;8.20;;;-0.40;99.90;;;;;;5031009;28;20032;-85
2023/01/22 00:37:20;;;;;;;18.43;8.37;;;-0.40;99.90;;;;;;5048345;28;20049;-85
2023/01/22 00:39:46;;;;;;;15.93;9.10;;;-0.40;99.90;;;;;;5030082;28;20041;-84
2023/01/22 00:42:11;;;;;;;18.60;8.83;;;-0.40;99.90;;;;;;5043276;28;20246;-85
2023/01/22 00:44:37;;;;;;;14.90;8.33;;;-0.50;99.90;;;;;;5031105;28;20035;-83
2023/01/22 00:47:02;;;;;;;14.03;8.37;;;-0.50;99.90;;;;;;5047268;28;20225;-83
2023/01/22 00:49:28;;;;;;;19.67;9.40;;;-0.50;99.90;;;;;;5024844;28;20033;-84
2023/01/22 00:51:53;;;;;;;17.83;9.13;;;-0.60;99.90;;;;;;5048220;28;20045;-83
2023/01/22 00:54:19;;;;;;;18.37;8.93;;;-0.60;99.90;;;;;;5047678;28;20044;-84
2023/01/22 00:56:44;;;;;;;15.20;9.00;;;-0.70;99.90;;;;;;5028226;28;20407;-84
2023/01/22 00:59:10;;;;;;;15.33;9.50;;;-0.70;99.90;;;;;;5048998;28;20564;-84
2023/01/22 01:01:38;;;;;;;19.43;10.10;;;-0.80;99.90;;;;;;5028762;28;20030;-83
2023/01/22 01:04:04;;;;;;;19.17;10.20;;;-0.80;99.90;;;;;;5047427;28;20067;-83
2023/01/22 01:06:30;;;;;;;19.47;10.00;;;-0.80;99.90;;;;;;5048587;28;20061;-83
2023/01/22 01:08:56;;;;;;;18.43;9.83;;;-0.80;99.90;;;;;;5047553;28;20031;-83
2023/01/22 01:11:24;;;;;;;17.47;10.13;;;-0.80;99.90;;;;;;5023852;28;20495;-83
2023/01/22 01:13:51;;;;;;;17.10;9.90;;;-0.70;99.90;;;;;;5045821;28;20033;-83
2023/01/22 01:16:20;;;;;;;20.23;10.60;;;-0.70;99.90;;;;;;5034127;28;20037;-83
2023/01/22 01:18:46;;;;;;;23.87;10.97;;;-0.70;99.90;;;;;;5048453;28;20108;-83
2023/01/22 01:21:12;;;;;;;19.43;11.13;;;-0.70;99.90;;;;;;5035489;28;20571;-83
2023/01/22 01:23:38;;;;;;;17.80;10.63;;;-0.70;99.90;;;;;;5052106;28;20094;-83
2023/01/22 01:26:08;;;;;;;20.47;10.43;;;-0.70;99.90;;;;;;5032298;28;20048;-83
2023/01/22 01:28:36;;;;;;;18.83;10.77;;;-0.60;99.90;;;;;;5026834;28;20040;-83
2023/01/22 01:31:06;;;;;;;19.00;10.80;;;-0.60;99.90;;;;;;5051100;28;20045;-83
2023/01/22 01:33:32;;;;;;;19.00;10.27;;;-0.60;99.90;;;;;;5047770;28;20040;-83
2023/01/22 01:35:59;;;;;;;19.17;10.37;;;-0.50;99.90;;;;;;5051112;28;20513;-83
2023/01/22 01:38:24;;;;;;;20.07;11.47;;;-0.10;99.90;;;;;;5048155;28;20167;-83
2023/01/22 01:40:50;;;;;;;24.20;10.17;;;-0.60;99.90;;;;;;5046705;28;20559;-83
2023/01/22 01:43:16;;;;;;;23.90;10.77;;;-0.60;99.90;;;;;;5044889;28;20041;-83
2023/01/22 01:45:42;;;;;;;20.33;10.23;;;-0.60;99.90;;;;;;5027114;28;20044;-83
2023/01/22 01:48:32;;;;;;;18.93;10.53;;;-0.60;99.90;;;;;;5033405;28;20037;-83
2023/01/22 01:51:35;;;;;;;21.30;10.23;;;-0.50;99.90;;;;;;5044922;28;20037;-83
2023/01/22 01:54:03;;;;;;;16.23;9.90;;;-0.60;99.90;;;;;;5046823;28;20033;-82
2023/01/22 01:56:40;;;;;;;18.83;9.80;;;-0.60;99.90;;;;;;5050464;28;20032;-83
2023/01/22 01:59:09;;;;;;;19.40;10.50;;;-0.60;99.90;;;;;;5051028;28;20075;-82
2023/01/22 02:01:35;;;;;;;20.90;10.33;;;-0.60;99.90;;;;;;5050083;28;20123;-83
2023/01/22 02:04:02;;;;;;;18.30;10.43;;;-0.60;99.90;;;;;;5030861;28;21215;-82
2023/01/22 02:06:27;;;;;;;19.70;9.93;;;-0.70;99.90;;;;;;5034936;28;20033;-82
2023/01/22 02:08:54;;;;;;;18.27;10.20;;;-0.70;99.90;;;;;;5050084;28;20041;-83
2023/01/22 02:11:20;;;;;;;23.23;11.13;;;-0.70;99.90;;;;;;5047901;28;20063;-82
2023/01/22 02:13:58;;;;;;;20.17;10.63;;;-0.70;99.90;;;;;;5044209;28;20437;-82
2023/01/22 02:16:23;;;;;;;18.57;10.13;;;-0.70;99.90;;;;;;5052252;28;20124;-82
2023/01/22 02:18:49;;;;;;;22.73;10.63;;;-0.70;99.90;;;;;;5036514;28;20167;-82
2023/01/22 02:21:39;;;;;;;17.00;10.53;;;-0.70;99.90;;;;;;5044707;28;20042;-82
2023/01/22 02:24:08;;;;;;;21.40;10.43;;;-0.70;99.90;;;;;;5047827;28;20083;-82
2023/01/22 02:26:35;;;;;;;22.10;10.40;;;-0.70;99.90;;;;;;5048914;28;20037;-82
2023/01/22 02:29:01;;;;;;;21.00;11.37;;;-0.70;99.90;;;;;;5047281;28;20036;-82
2023/01/22 02:31:26;;;;;;;21.27;10.87;;;-0.60;99.90;;;;;;5031112;28;20036;-82
2023/01/22 02:33:52;;;;;;;22.20;10.43;;;-0.60;99.90;;;;;;5050360;28;20295;-83
2023/01/22 02:36:18;;;;;;;20.73;11.03;;;-0.60;99.90;;;;;;5049261;28;20069;-82
2023/01/22 02:38:44;;;;;;;18.67;10.23;;;-0.50;99.90;;;;;;5045139;28;20524;-82
2023/01/22 02:41:10;;;;;;;19.43;9.47;;;-0.40;99.90;;;;;;5045356;28;20037;-82
2023/01/22 02:43:35;;;;;;;18.03;9.20;;;-0.40;99.90;;;;;;5050459;28;20033;-83
2023/01/22 02:46:01;;;;;;;16.47;9.20;;;-0.40;99.90;;;;;;5048807;28;20040;-82
2023/01/22 02:48:26;;;;;;;19.43;8.87;;;-0.30;99.90;;;;;;5039203;28;20039;-83
2023/01/22 02:50:52;;;;;;;17.63;8.80;;;-0.30;99.90;;;;;;5045927;28;20584;-82
2023/01/22 02:53:17;;;;;;;15.23;8.43;;;-0.20;99.90;;;;;;5032983;28;20068;-82
2023/01/22 02:55:45;;;;;;;14.67;7.87;;;-0.20;99.90;;;;;;5045626;28;20045;-82
2023/01/22 02:58:10;;;;;;;12.20;6.77;;;-0.10;99.90;;;;;;5046799;28;20040;-82
2023/01/22 03:00:36;;;;;;;14.27;6.70;;;-0.10;99.90;;;;;;5047627;28;20457;-82
2023/01/22 03:03:06;;;;;;;14.33;7.47;;;-0.10;99.90;;;;;;5049684;28;20087;-82
2023/01/22 03:05:35;;;;;;;11.33;6.90;;;0.00;99.90;;;;;;5048703;28;20033;-82
2023/01/22 03:08:00;;;;;;;13.63;6.57;;;0.00;99.90;;;;;;5048760;28;20041;-83
2023/01/22 03:10:26;;;;;;;13.60;6.70;;;0.00;99.90;;;;;;5034182;28;20418;-83
2023/01/22 03:21:15;;;;;;;11.30;6.23;;;0.00;99.90;;;;;;5042000;28;20049;-83
2023/01/22 03:23:43;;;;;;;10.52;5.88;;;0.00;99.90;;;;;;5043266;28;20033;-82
2023/01/22 03:26:10;;;;;;;11.07;6.10;;;0.00;99.90;;;;;;5047975;28;20119;-83
2023/01/22 03:28:36;;;;;;;9.33;5.40;;;0.00;99.90;;;;;;5048579;28;20024;-83
2023/01/22 03:31:01;;;;;;;11.23;5.60;;;-0.30;99.90;;;;;;5033941;28;20049;-83
2023/01/22 03:33:27;;;;;;;9.30;4.63;;;0.00;99.90;;;;;;5028487;28;20037;-83
2023/01/22 03:35:52;;;;;;;10.53;5.30;;;0.10;99.90;;;;;;5040428;28;20098;-83
2023/01/22 03:38:18;;;;;;;13.87;5.87;;;0.00;99.90;;;;;;5044508;28;20069;-83
2023/01/22 03:40:43;;;;;;;11.43;5.77;;;0.00;99.90;;;;;;5048579;28;20044;-83
2023/01/22 03:43:09;;;;;;;10.07;5.00;;;0.10;99.90;;;;;;5032089;28;20498;-84
2023/01/22 03:45:34;;;;;;;9.23;5.40;;;0.10;99.90;;;;;;5030438;28;20120;-83
2023/01/22 03:48:01;;;;;;;8.03;4.83;;;0.10;99.90;;;;;;5041209;28;20061;-84
2023/01/22 03:50:27;;;;;;;8.10;4.57;;;0.10;99.90;;;;;;5048227;28;20052;-84
2023/01/22 03:52:54;;;;;;;7.20;4.90;;;0.10;99.90;;;;;;5028080;28;20037;-85
2023/01/22 03:55:19;;;;;;;10.17;4.83;;;0.10;99.90;;;;;;5043624;28;20045;-84
2023/01/22 03:57:45;;;;;;;10.53;5.00;;;0.20;99.90;;;;;;5031587;28;20041;-84
2023/01/22 04:00:12;;;;;;;9.80;5.07;;;0.20;99.90;;;;;;5043805;28;20446;-83
2023/01/22 04:02:38;;;;;;;8.40;4.57;;;0.20;99.90;;;;;;5043699;28;20033;-84
2023/01/22 04:05:04;;;;;;;7.87;4.57;;;0.30;99.90;;;;;;5046962;28;20490;-83
2023/01/22 04:07:30;;;;;;;10.40;5.00;;;0.30;99.90;;;;;;5028897;28;20047;-84
2023/01/22 04:09:55;;;;;;;8.47;5.17;;;0.30;99.90;;;;;;5048618;28;20037;-83
2023/01/22 04:12:21;;;;;;;10.43;4.80;;;0.30;99.90;;;;;;5047597;28;20036;-84
2023/01/22 04:14:46;;;;;;;6.43;4.37;;;0.30;99.90;;;;;;5041492;28;20039;-84
2023/01/22 04:17:12;;;;;;;9.17;4.87;;;0.30;99.90;;;;;;5030181;28;20066;-84
2023/01/22 04:19:37;;;;;;;10.33;4.60;;;0.30;99.90;;;;;;5042606;28;20044;-85
2023/01/22 04:22:03;;;;;;;11.00;4.77;;;0.30;99.90;;;;;;5044516;28;20526;-85
2023/01/22 04:24:28;;;;;;;8.70;4.73;;;0.30;99.90;;;;;;5043552;28;20098;-86
2023/01/22 04:26:54;;;;;;;6.53;4.00;;;0.30;99.90;;;;;;5029919;28;20116;-86
2023/01/22 04:29:19;;;;;;;7.30;4.37;;;0.30;99.90;;;;;;5044494;28;20573;-86
2023/01/22 04:31:45;;;;;;;8.20;4.57;;;0.30;99.90;;;;;;5021997;28;20034;-87
2023/01/22 04:34:11;;;;;;;9.87;4.93;;;0.40;99.90;;;;;;5046679;28;20414;-87
2023/01/22 04:36:36;;;;;;;7.93;4.50;;;0.40;99.90;;;;;;5028910;28;20464;-85
2023/01/22 04:39:02;;;;;;;9.77;5.00;;;0.40;99.90;;;;;;5026546;28;20037;-86
2023/01/22 04:41:27;;;;;;;8.33;4.70;;;0.40;99.90;;;;;;5045508;28;20025;-86
2023/01/22 04:43:53;;;;;;;7.30;4.63;;;0.40;99.90;;;;;;5050468;28;20041;-86
2023/01/22 04:46:18;;;;;;;7.93;4.80;;;0.30;99.90;;;;;;5052287;28;20067;-88
2023/01/22 04:48:45;;;;;;;8.80;4.73;;;0.30;99.90;;;;;;5051627;28;20555;-87
2023/01/22 04:51:11;;;;;;;7.47;4.57;;;0.40;99.90;;;;;;5033581;28;20048;-86
2023/01/22 04:53:37;;;;;;;9.43;4.70;;;0.40;99.90;;;;;;5049359;28;20122;-86
2023/01/22 04:56:03;;;;;;;10.43;5.50;;;0.50;99.90;;;;;;5030441;28;20079;-87
2023/01/22 04:58:28;;;;;;;9.13;4.60;;;0.40;99.90;;;;;;5052519;28;20044;-86
2023/01/22 05:00:55;;;;;;;8.33;5.20;;;0.50;99.90;;;;;;5029584;28;20037;-85
2023/01/22 05:03:21;;;;;;;8.57;5.03;;;0.50;99.90;;;;;;5053554;28;20040;-87
2023/01/22 05:05:46;;;;;;;7.23;4.93;;;0.50;99.90;;;;;;5035256;28;20029;-87
2023/01/22 05:08:12;;;;;;;7.80;4.87;;;0.50;99.90;;;;;;5033783;28;20051;-87
2023/01/22 05:10:37;;;;;;;8.60;5.27;;;0.50;99.90;;;;;;5034365;28;20072;-87
2023/01/22 05:13:05;;;;;;;6.93;4.90;;;0.50;99.90;;;;;;5035202;28;20064;-87
2023/01/22 05:15:30;;;;;;;8.27;4.83;;;0.50;99.90;;;;;;5027535;28;20041;-87
2023/01/22 05:17:56;;;;;;;9.73;4.93;;;0.50;99.90;;;;;;5032004;28;20040;-87
2023/01/22 05:20:22;;;;;;;8.00;4.97;;;0.50;99.90;;;;;;5046565;28;20033;-85
2023/01/22 05:22:47;;;;;;;9.87;5.17;;;0.50;99.90;;;;;;5034200;28;20088;-86
2023/01/22 05:25:13;;;;;;;8.20;5.17;;;0.50;99.90;;;;;;5048449;28;20533;-88
2023/01/22 05:27:39;;;;;;;8.43;4.87;;;0.50;99.90;;;;;;5036234;28;20040;-87
2023/01/22 05:30:05;;;;;;;8.90;5.20;;;0.50;99.90;;;;;;5035651;28;20040;-86
2023/01/22 05:32:31;;;;;;;7.63;4.90;;;0.50;99.90;;;;;;5034594;28;20071;-88
2023/01/22 05:34:56;;;;;;;8.60;5.20;;;0.50;99.90;;;;;;5030215;28;20060;-87
2023/01/22 05:37:22;;;;;;;8.30;5.03;;;0.50;99.90;;;;;;5045751;28;20073;-87
2023/01/22 05:39:47;;;;;;;7.20;4.53;;;0.60;99.90;;;;;;5036812;28;20040;-87
2023/01/22 05:42:14;;;;;;;10.97;5.20;;;0.50;99.90;;;;;;5052065;28;20147;-86
2023/01/22 05:44:41;;;;;;;9.10;5.37;;;0.80;99.90;;;;;;5048055;28;20040;-86
2023/01/22 05:47:07;;;;;;;11.03;5.00;;;0.50;99.90;;;;;;5049848;28;20049;-86
2023/01/22 05:49:33;;;;;;;8.63;5.03;;;0.50;99.90;;;;;;5051243;28;20041;-87
2023/01/22 05:51:58;;;;;;;8.17;4.97;;;1.30;99.90;;;;;;5035890;28;20098;-87
2023/01/22 05:54:24;;;;;;;8.93;5.13;;;0.30;99.90;;;;;;5049719;28;20103;-87
2023/01/22 05:56:49;;;;;;;9.77;5.00;;;0.50;99.90;;;;;;5048914;28;20054;-87
2023/01/22 05:59:15;;;;;;;8.27;5.10;;;0.50;99.90;;;;;;5050846;28;20041;-87
2023/01/22 06:01:40;;;;;;;8.33;5.53;;;0.40;99.90;;;;;;5031652;28;20034;-87
2023/01/22 06:04:06;;;;;;;9.73;5.53;;;0.40;99.90;;;;;;5051168;28;20079;-87
2023/01/22 06:06:31;;;;;;;8.73;5.73;;;0.40;99.90;;;;;;5033799;28;20033;-87
2023/01/22 06:08:58;;;;;;;10.47;5.60;;;0.20;99.90;;;;;;5047757;28;20124;-87
2023/01/22 06:11:24;;;;;;;7.43;5.10;;;0.40;99.90;;;;;;5033622;28;20041;-86
2023/01/22 06:13:50;;;;;;;9.00;5.37;;;0.40;99.90;;;;;;5035986;28;20098;-86
2023/01/22 06:16:16;;;;;;;8.43;5.60;;;0.40;99.90;;;;;;5033896;28;20490;-87
2023/01/22 06:18:41;;;;;;;9.17;5.53;;;0.40;99.90;;;;;;5032745;28;20037;-87
2023/01/22 06:21:08;;;;;;;8.90;5.70;;;0.40;99.90;;;;;;5044520;28;20049;-87
2023/01/22 06:23:33;;;;;;;8.93;5.47;;;0.40;99.90;;;;;;5049836;28;20116;-86
2023/01/22 06:26:00;;;;;;;8.83;5.17;;;0.40;99.90;;;;;;5051074;28;20726;-87
2023/01/22 06:28:27;;;;;;;8.30;5.37;;;0.40;99.90;;;;;;5035325;28;20069;-87
2023/01/22 06:30:56;;;;;;;9.40;5.60;;;0.40;99.90;;;;;;5049979;28;20244;-86
2023/01/22 06:33:22;;;;;;;9.30;5.70;;;0.30;99.90;;;;;;5050680;28;20040;-87
2023/01/22 06:35:53;;;;;;;11.33;5.93;;;0.30;99.90;;;;;;5046126;28;20041;-87
2023/01/22 06:38:18;;;;;;;11.47;6.13;;;0.40;99.90;;;;;;5029058;28;20402;-85
2023/01/22 06:40:50;;;;;;;9.77;5.73;;;0.40;99.90;;;;;;5029689;28;20128;-86
2023/01/22 06:43:15;;;;;;;11.03;6.20;;;0.40;99.90;;;;;;5051599;28;20368;-86
2023/01/22 06:45:41;;;;;;;9.00;5.57;;;0.40;99.90;;;;;;5046693;28;20047;-86
2023/01/22 06:48:06;;;;;;;9.53;5.77;;;0.40;99.90;;;;;;5043540;28;20037;-86
2023/01/22 06:50:32;;;;;;;10.47;6.40;;;0.30;99.90;;;;;;5034967;28;20053;-86
2023/01/22 06:52:59;;;;;;;9.40;6.33;;;0.30;99.90;;;;;;5049747;28;20115;-87
2023/01/22 06:55:25;;;;;;;10.00;5.57;;;0.40;99.90;;;;;;5029687;28;20045;-86
2023/01/22 06:57:53;;;;;;;8.80;5.90;;;0.30;99.90;;;;;;5018384;28;20045;-86
2023/01/22 07:00:19;;;;;;;8.37;5.63;;;0.30;99.90;;;;;;5035948;28;20401;-86
2023/01/22 07:02:45;;;;;;;9.00;5.97;;;0.30;99.90;;;;;;5041144;28;20052;-86
2023/01/22 07:05:10;;;;;;;9.80;5.90;;;0.30;99.90;;;;;;5024075;28;20045;-86
2023/01/22 07:07:36;;;;;;;8.33;5.67;;;0.30;99.90;;;;;;5040534;28;20065;-87
2023/01/22 07:10:02;;;;;;;8.90;6.00;;;0.20;99.90;;;;;;5036736;28;20064;-87
2023/01/22 07:12:27;;;;;;;11.73;6.33;;;0.30;99.90;;;;;;5061624;28;20075;-87
2023/01/22 07:14:53;;;;;;;10.57;6.73;;;0.20;99.90;;;;;;5031062;28;20639;-87
2023/01/22 07:17:18;;;;;;;9.93;6.73;;;0.20;99.90;;;;;;5046078;28;20090;-87
2023/01/22 07:19:44;;;;;;;11.13;6.40;;;0.30;99.90;;;;;;5048253;28;20124;-87
2023/01/22 07:22:10;;;;;;;9.63;6.17;;;0.20;99.90;;;;;;5022620;28;20038;-86
2023/01/22 07:24:35;;;;;;;10.47;7.40;;;0.20;99.90;;;;;;5015879;28;20087;-87
2023/01/22 07:27:01;;;;;;;8.90;6.77;;;0.20;99.90;;;;;;5043703;28;20029;-86
2023/01/22 07:29:27;;;;;;;9.47;7.10;;;0.20;99.90;;;;;;5049991;28;20059;-86
2023/01/22 07:31:52;;;;;;;10.67;7.03;;;0.20;99.90;;;;;;5043062;28;20044;-86
2023/01/22 07:34:18;;;;;;;9.83;6.93;;;0.20;99.90;;;;;;5038246;28;20513;-86
2023/01/22 07:36:47;;;;;;;9.67;6.60;;;0.20;99.90;;;;;;5025799;28;20039;-86
2023/01/22 07:39:12;;;;;;;9.10;6.10;;;0.20;99.90;;;;;;5026536;28;20045;-86
2023/01/22 07:41:38;;;;;;;9.63;6.87;;;0.10;99.90;;;;;;5036968;28;20123;-86
2023/01/22 07:44:06;;;;;;;9.67;7.17;;;0.10;99.90;;;;;;5042324;28;20113;-86
2023/01/22 07:46:33;;;;;;;9.87;6.50;;;0.10;99.90;;;;;;5030817;28;20120;-86
2023/01/22 07:48:59;;;;;;;10.73;6.97;;;0.10;99.90;;;;;;5047232;28;20079;-86
2023/01/22 07:51:25;;;;;;;10.97;7.70;;;0.10;99.90;;;;;;5025052;28;20048;-86
2023/01/22 07:53:51;;;;;;;10.17;7.47;;;0.10;99.90;;;;;;5045867;28;20124;-86
2023/01/22 07:56:17;;;;;;;10.03;7.17;;;0.10;99.90;;;;;;5044932;28;20041;-86
2023/01/22 07:58:44;;;;;;;10.10;7.60;;;0.10;99.90;;;;;;5041803;28;20041;-86
2023/01/22 08:01:10;;;;;;;9.73;6.97;;;0.10;99.90;;;;;;5032574;28;20072;-87
2023/01/22 08:03:36;;;;;;;11.57;7.63;;;0.10;99.90;;;;;;5046729;28;20029;-86
2023/01/22 08:06:08;;;;;;;10.70;7.90;;;0.10;99.90;;;;;;5036656;28;20043;-86
2023/01/22 08:08:34;;;;;;;10.23;7.40;;;0.10;99.90;;;;;;5049303;28;20485;-86
2023/01/22 08:10:59;;;;;;;13.07;7.47;;;0.00;99.90;;;;;;5049026;28;20124;-86
2023/01/22 08:13:25;;;;;;;9.13;7.10;;;0.00;99.90;;;;;;5025164;28;20041;-87
2023/01/22 08:15:50;;;;;;;9.90;6.90;;;0.00;99.90;;;;;;5044862;28;20552;-87
2023/01/22 08:18:16;;;;;;;9.87;6.83;;;0.00;99.90;;;;;;5043952;28;20037;-87
2023/01/22 08:20:41;;;;;;;9.73;7.10;;;0.00;99.90;;;;;;5032538;28;20048;-86
2023/01/22 08:23:07;;;;;;;11.80;7.37;;;0.70;99.90;;;;;;5050437;28;20037;-87
2023/01/22 08:25:32;;;;;;;11.30;7.80;;;0.00;99.90;;;;;;5050455;28;20403;-87
2023/01/22 08:28:01;;;;;;;11.33;7.00;;;0.10;99.90;;;;;;5048096;28;20151;-87
2023/01/22 08:30:27;;;;;;;10.60;7.10;;;0.10;99.90;;;;;;5033096;28;20414;-87
2023/01/22 08:32:53;;;;;;;12.43;7.13;;;0.40;99.90;;;;;;5033592;28;20045;-86
2023/01/22 08:35:19;;;;;;;9.97;7.50;;;0.10;99.90;;;;;;5034164;28;20068;-87
2023/01/22 08:37:45;;;;;;;9.83;6.67;;;0.10;99.90;;;;;;5048466;28;20613;-87
2023/01/22 08:40:12;;;;;;;12.57;6.93;;;0.10;99.90;;;;;;5029353;28;20041;-87
2023/01/22 08:42:38;;;;;;;10.40;6.27;;;0.10;99.90;;;;;;5049806;28;20123;-87
2023/01/22 08:45:05;;;;;;;10.57;6.80;;;0.10;99.90;;;;;;5038902;28;20041;-87
2023/01/22 08:47:30;;;;;;;9.73;7.17;;;0.10;99.90;;;;;;5021393;28;20403;-87
2023/01/22 08:49:56;;;;;;;13.03;9.07;;;0.10;99.90;;;;;;5048448;28;20029;-87
2023/01/22 08:52:22;;;;;;;13.93;7.37;;;0.10;99.90;;;;;;5025729;28;20060;-86
2023/01/22 08:54:47;;;;;;;10.30;6.93;;;0.10;99.90;;;;;;5027537;28;20410;-87
2023/01/22 08:57:13;;;;;;;11.30;6.87;;;0.10;99.90;;;;;;5042827;28;20075;-87
2023/01/22 08:59:39;;;;;;;16.20;8.60;;;0.10;99.90;;;;;;5026062;28;20037;-86
2023/01/22 09:02:04;;;;;;;10.17;6.70;;;0.10;99.90;;;;;;5042799;28;20045;-87
2023/01/22 09:04:30;;;;;;;10.33;7.20;;;0.10;99.90;;;;;;5038689;28;20049;-86
2023/01/22 09:06:55;;;;;;;10.37;6.47;;;0.00;99.90;;;;;;5032643;28;20512;-85
2023/01/22 09:09:22;;;;;;;9.97;6.83;;;0.00;99.90;;;;;;5033047;28;20136;-87
2023/01/22 09:11:47;;;;;;;10.60;6.63;;;0.10;99.90;;;;;;5043685;28;20056;-87
2023/01/22 09:14:16;;;;;;;12.10;6.57;;;0.10;99.90;;;;;;5031600;28;20037;-87
2023/01/22 09:16:42;;;;;;;12.07;6.27;;;0.00;99.90;;;;;;5049944;28;20068;-87
2023/01/22 09:19:07;;;;;;;9.23;6.23;;;0.10;99.90;;;;;;5044284;28;20068;-87
2023/01/22 09:21:36;;;;;;;11.40;6.17;;;0.10;99.90;;;;;;5033701;28;20114;-88
2023/01/22 09:24:01;;;;;;;11.00;6.37;;;0.00;99.90;;;;;;5031600;28;20037;-87
2023/01/22 09:26:27;;;;;;;9.50;6.10;;;-0.20;99.90;;;;;;5034089;28;20047;-88
2023/01/22 09:28:52;;;;;;;9.50;6.07;;;-0.20;99.90;;;;;;5024088;28;20043;-88
2023/01/22 09:31:18;;;;;;;8.30;6.03;;;1.00;99.90;;;;;;5021529;28;20442;-88
2023/01/22 09:33:44;;;;;;;9.73;5.70;;;1.20;99.90;;;;;;5024986;28;20041;-89
2023/01/22 09:36:13;;;;;;;8.70;6.23;;;0.80;99.90;;;;;;5034884;28;20089;-88
2023/01/22 09:38:38;;;;;;;9.07;6.20;;;0.90;99.90;;;;;;5032241;28;20036;-88
2023/01/22 09:41:19;;;;;;;10.67;6.53;;;1.20;99.90;;;;;;5037468;28;20041;-88
2023/01/22 09:43:50;;;;;;;10.27;6.03;;;0.10;99.90;;;;;;5033927;28;20087;-88
2023/01/22 09:46:29;;;;;;;12.17;6.87;;;1.20;99.90;;;;;;5038105;28;20507;-88
2023/01/22 09:49:07;;;;;;;15.23;6.80;;;-1.00;99.90;;;;;;5053877;28;20033;-89
2023/01/22 09:51:36;;;;;;;10.87;6.67;;;-0.40;99.90;;;;;;5037638;28;20036;-88
2023/01/22 09:54:06;;;;;;;9.67;6.80;;;-0.30;99.90;;;;;;5037301;28;20432;-88
2023/01/22 09:56:44;;;;;;;12.07;5.90;;;0.30;99.90;;;;;;5024087;28;20089;-88
2023/01/22 09:59:24;;;;;;;11.20;6.67;;;0.40;99.90;;;;;;5020506;28;20053;-88
2023/01/22 10:01:56;;;;;;;11.97;6.60;;;-0.50;99.90;;;;;;5031528;28;20030;-88
2023/01/22 10:04:39;;;;;;;9.60;6.20;;;0.10;99.90;;;;;;5049509;28;20041;-88
2023/01/22 10:07:14;;;;;;;13.05;7.03;;;1.30;99.90;;;;;;5028245;28;20124;-88
2023/01/22 10:09:44;;;;;;;11.30;6.73;;;0.80;99.90;;;;;;5040962;28;20128;-88
2023/01/22 10:12:13;;;;;;;9.83;6.70;;;0.80;99.90;;;;;;5038135;28;20083;-89
2023/01/22 10:14:41;;;;;;;10.00;6.97;;;1.60;99.90;;;;;;5041089;28;20048;-89
2023/01/22 10:17:21;;;;;;;9.10;6.40;;;0.90;99.90;;;;;;5025549;28;20102;-89
2023/01/22 10:19:55;;;;;;;11.43;7.00;;;0.90;99.90;;;;;;5027760;28;20037;-89
2023/01/22 10:22:24;;;;;;;9.75;6.18;;;1.00;99.90;;;;;;5048724;28;20574;-89
2023/01/22 10:24:50;;;;;;;9.20;6.33;;;1.00;99.90;;;;;;5030116;28;20045;-89
2023/01/22 10:27:20;;;;;;;13.27;6.67;;;1.10;99.90;;;;;;5025438;28;20107;-89
2023/01/22 10:30:14;;;;;;;10.00;6.50;;;1.10;99.90;;;;;;5035333;28;20041;-89
2023/01/22 10:32:40;;;;;;;9.52;6.18;;;1.20;99.90;;;;;;5032083;28;20041;-89
2023/01/22 10:35:18;;;;;;;9.97;6.27;;;1.20;99.90;;;;;;5022806;28;20452;-90
2023/01/22 10:37:53;;;;;;;8.93;6.17;;;1.70;99.90;;;;;;5029653;28;20116;-89
2023/01/22 10:40:32;;;;;;;8.43;6.33;;;1.30;99.90;;;;;;5023703;28;20102;-88
2023/01/22 10:43:37;;;;;;;12.70;6.47;;;1.30;99.90;;;;;;5035264;28;20521;-89
2023/01/22 10:46:24;;;;;;;9.20;6.17;;;1.40;99.90;;;;;;5036174;28;20090;-88
2023/01/22 10:49:02;;;;;;;10.60;6.60;;;1.40;99.90;;;;;;5033238;28;20033;-90
2023/01/22 10:51:31;;;;;;;9.23;6.53;;;1.50;99.90;;;;;;5031861;28;20041;-89
2023/01/22 10:53:58;;;;;;;10.33;6.60;;;1.50;99.90;;;;;;5033157;28;20029;-89
2023/01/22 10:56:32;;;;;;;9.50;6.37;;;1.60;99.90;;;;;;5020361;28;20443;-88
2023/01/22 10:59:02;;;;;;;12.10;6.00;;;1.50;99.90;;;;;;5045585;28;20112;-89
2023/01/22 11:01:33;;;;;;;11.47;6.30;;;1.60;99.90;;;;;;5036427;28;20033;-88
2023/01/22 11:04:09;;;;;;;9.77;5.90;;;1.50;99.90;;;;;;5042537;28;20033;-88
2023/01/22 11:06:47;;;;;;;8.33;5.70;;;1.40;99.90;;;;;;5023117;28;20109;-88
2023/01/22 11:09:38;;;;;;;8.47;5.67;;;1.30;99.90;;;;;;5045663;28;20490;-88
2023/01/22 11:12:23;;;;;;;10.70;5.90;;;1.60;99.90;;;;;;5029523;28;20509;-88
2023/01/22 11:15:02;;;;;;;8.83;5.90;;;1.60;99.90;;;;;;5051106;28;20033;-88
2023/01/22 11:17:41;;;;;;;9.27;5.60;;;1.70;99.90;;;;;;5026771;28;20034;-89
2023/01/22 11:20:18;;;;;;;10.90;6.20;;;1.70;99.90;;;;;;5022071;28;20080;-89
2023/01/22 11:22:58;;;;;;;10.37;5.70;;;1.70;99.90;;;;;;5033194;28;20514;-88
2023/01/22 11:25:24;;;;;;;8.13;5.70;;;1.80;99.90;;;;;;5031273;28;20403;-88
2023/01/22 11:28:27;;;;;;;10.23;5.53;;;1.80;99.90;;;;;;5028765;28;20028;-88
2023/01/22 11:31:07;;;;;;;10.00;6.10;;;1.80;99.90;;;;;;5041687;28;20487;-88
2023/01/22 11:33:42;;;;;;;15.73;5.60;;;1.80;99.90;;;;;;5048614;28;20102;-86
2023/01/22 11:36:18;;;;;;;8.90;5.57;;;1.80;99.90;;;;;;5027641;28;20508;-88
2023/01/22 11:38:50;;;;;;;10.57;6.00;;;1.80;99.90;;;;;;5031234;28;20037;-88
2023/01/22 11:41:46;;;;;;;9.70;5.97;;;1.80;99.90;;;;;;5041605;28;20042;-88
2023/01/22 11:44:33;;;;;;;8.27;5.70;;;1.80;99.90;;;;;;5038093;28;20029;-86
2023/01/22 11:47:21;;;;;;;9.37;5.83;;;1.90;99.90;;;;;;5023962;28;20099;-86
2023/01/22 11:50:15;;;;;;;10.70;6.20;;;1.90;99.90;;;;;;5044488;28;20071;-87
2023/01/22 11:52:49;;;;;;;9.17;6.10;;;2.00;99.90;;;;;;5048534;28;20107;-87
2023/01/22 11:55:15;;;;;;;10.33;5.50;;;2.00;99.90;;;;;;5030734;28;20491;-87
2023/01/22 11:57:58;;;;;;;8.47;5.57;;;2.10;99.90;;;;;;5026175;28;20060;-87
2023/01/22 12:00:50;;;;;;;9.17;6.27;;;2.10;99.90;;;;;;5034607;28;20037;-88
2023/01/22 12:04:03;;;;;;;9.90;5.90;;;2.10;99.90;;;;;;5032938;28;20120;-88
2023/01/22 12:06:54;;;;;;;9.27;5.60;;;2.20;99.90;;;;;;5033767;28;20041;-88
2023/01/22 12:09:32;;;;;;;8.60;5.20;;;3.40;99.90;;;;;;5031925;28;20033;-88
2023/01/22 12:12:18;;;;;;;9.37;5.83;;;2.40;99.90;;;;;;5030256;28;20040;-87
2023/01/22 12:14:46;;;;;;;9.02;5.72;;;2.40;99.90;;;;;;5027844;28;20041;-88
2023/01/22 12:17:38;;;;;;;9.17;5.47;;;2.40;99.90;;;;;;5033294;28;20052;-87
2023/01/22 12:20:47;;;;;;;8.30;5.63;;;2.40;99.90;;;;;;5034255;28;20045;-87
2023/01/22 12:23:23;;;;;;;8.03;5.27;;;2.50;99.90;;;;;;5034485;28;20549;-87
2023/01/22 12:26:16;;;;;;;8.60;5.53;;;2.60;99.90;;;;;;5050203;28;20450;-87
2023/01/22 12:28:46;;;;;;;8.88;5.32;;;2.60;99.90;;;;;;5051386;28;20037;-87
2023/01/22 12:31:36;;;;;;;8.35;5.40;;;2.60;99.90;;;;;;5034710;28;20048;-87
2023/01/22 12:34:08;;;;;;;10.07;5.40;;;2.60;99.90;;;;;;5034803;28;20045;-87
2023/01/22 12:36:34;;;;;;;6.80;5.10;;;2.60;99.90;;;;;;5042089;28;20400;-87
2023/01/22 12:39:07;;;;;;;9.03;5.83;;;2.50;99.90;;;;;;5016332;28;20045;-87
2023/01/22 12:42:14;;;;;;;8.15;5.18;;;2.50;99.90;;;;;;5042939;28;20046;-87
2023/01/22 12:44:55;;;;;;;9.98;5.25;;;2.50;99.90;;;;;;5025653;28;20075;-87
2023/01/22 12:47:24;;;;;;;6.82;5.30;;;2.50;99.90;;;;;;5051003;28;20124;-87
2023/01/22 12:49:51;;;;;;;10.07;4.97;;;2.50;99.90;;;;;;5050710;28;20068;-87
2023/01/22 12:52:38;;;;;;;10.73;5.33;;;2.50;99.90;;;;;;5032736;28;20040;-87
2023/01/22 12:55:28;;;;;;;8.82;4.68;;;2.40;99.90;;;;;;5021008;28;20479;-87
2023/01/22 12:58:02;;;;;;;8.55;5.18;;;2.40;99.90;;;;;;5031429;28;20037;-87
2023/01/22 13:00:35;;;;;;;9.98;5.35;;;2.40;99.90;;;;;;5029516;28;20087;-87
2023/01/22 13:03:27;;;;;;;9.52;5.25;;;2.40;99.90;;;;;;5050463;28;20084;-87
2023/01/22 13:05:54;;;;;;;9.85;4.90;;;2.30;99.90;;;;;;5020112;28;20037;-87
2023/01/22 13:08:25;;;;;;;7.93;5.03;;;2.30;99.90;;;;;;5032683;28;20040;-88